Time;durP1;ratioP1;P1;durP2;ratioP2;P2;SDS_P1;SDS_P2;PMS_P1;PMS_P2;Temp;Humidity;BMP_temperature;BMP_pressure;BME280_temperature;BME280_humidity;BME280_pressure;Samples;Min_cycle;Max_cycle;Signal;HPM_P1;HPM_P2
2021/08/06 00:00:00;;;;;;;13.07;10.57;;;;;;;;;;5015409;28;20050;-66
2021/08/06 00:02:26;;;;;;;13.38;11.38;;;;;;;;;;5016560;28;20426;-66
2021/08/06 00:04:53;;;;;;;14.30;11.65;;;;;;;;;;5012501;28;20050;-66
2021/08/06 00:07:21;;;;;;;13.20;11.80;;;;;;;;;;5018007;28;20037;-66
2021/08/06 00:09:47;;;;;;;13.10;11.23;;;;;;;;;;5019972;28;20041;-66
2021/08/06 00:12:13;;;;;;;14.00;11.07;;;;;;;;;;5022213;28;20075;-66
2021/08/06 00:14:39;;;;;;;12.30;11.07;;;;;;;;;;5018846;28;20095;-66
2021/08/06 00:17:05;;;;;;;12.68;11.38;;;;;;;;;;5015206;28;20061;-66
2021/08/06 00:19:32;;;;;;;12.45;10.90;;;;;;;;;;5017591;28;20450;-66
2021/08/06 00:21:59;;;;;;;12.90;11.52;;;;;;;;;;5022509;28;20157;-65
2021/08/06 00:24:25;;;;;;;13.63;12.23;;;;;;;;;;5021785;28;20049;-65
2021/08/06 00:26:51;;;;;;;13.52;12.23;;;;;;;;;;5017396;28;20176;-66
2021/08/06 00:29:18;;;;;;;20.00;11.25;;;;;;;;;;5024936;28;20085;-65
2021/08/06 00:31:45;;;;;;;13.32;11.93;;;;;;;;;;5023647;28;20103;-66
2021/08/06 00:34:11;;;;;;;13.68;12.15;;;;;;;;;;5019754;28;20081;-65
2021/08/06 00:36:37;;;;;;;14.38;12.25;;;;;;;;;;5024060;28;20120;-66
2021/08/06 00:39:03;;;;;;;18.02;12.75;;;;;;;;;;5018113;28;20789;-66
2021/08/06 00:41:30;;;;;;;13.38;11.43;;;;;;;;;;5026133;28;20071;-65
2021/08/06 00:43:56;;;;;;;13.52;12.13;;;;;;;;;;5021244;28;20116;-66
2021/08/06 00:46:22;;;;;;;12.75;11.38;;;;;;;;;;5016953;28;20184;-66
2021/08/06 00:48:49;;;;;;;13.75;12.35;;;;;;;;;;5020023;28;20046;-66
2021/08/06 00:51:15;;;;;;;12.63;11.30;;;;;;;;;;5018176;28;20050;-65
2021/08/06 00:53:42;;;;;;;14.15;12.75;;;;;;;;;;5019707;28;20082;-66
2021/08/06 00:56:09;;;;;;;15.13;12.18;;;;;;;;;;5022545;28;20037;-66
2021/08/06 00:58:37;;;;;;;14.52;12.93;;;;;;;;;;5022397;28;20041;-66
2021/08/06 01:01:03;;;;;;;14.73;12.43;;;;;;;;;;5015572;28;20060;-66
2021/08/06 01:03:40;;;;;;;14.02;12.52;;;;;;;;;;5019097;28;20544;-66
2021/08/06 01:06:08;;;;;;;13.02;11.35;;;;;;;;;;5024088;28;20080;-66
2021/08/06 01:08:36;;;;;;;14.38;12.93;;;;;;;;;;5020233;28;20061;-66
2021/08/06 01:11:04;;;;;;;14.93;13.32;;;;;;;;;;5020499;28;20049;-66
2021/08/06 01:13:31;;;;;;;13.55;12.15;;;;;;;;;;5013622;28;20117;-66
2021/08/06 01:15:58;;;;;;;14.77;13.27;;;;;;;;;;5019779;28;20084;-66
2021/08/06 01:18:25;;;;;;;15.00;13.50;;;;;;;;;;5016437;28;20052;-66
2021/08/06 01:20:54;;;;;;;17.40;13.23;;;;;;;;;;5015128;28;20053;-66
2021/08/06 01:23:28;;;;;;;22.33;15.10;;;;;;;;;;5016720;28;20095;-66
2021/08/06 01:26:03;;;;;;;14.95;13.38;;;;;;;;;;5023295;28;20102;-66
2021/08/06 01:28:30;;;;;;;16.50;14.10;;;;;;;;;;5014293;28;20452;-66
2021/08/06 01:30:57;;;;;;;15.65;13.70;;;;;;;;;;5016510;28;20094;-66
2021/08/06 01:33:24;;;;;;;15.52;13.85;;;;;;;;;;5016498;28;20068;-65
2021/08/06 01:35:50;;;;;;;15.88;14.23;;;;;;;;;;5017524;28;20045;-66
2021/08/06 01:38:17;;;;;;;15.40;13.45;;;;;;;;;;5018367;28;22052;-65
2021/08/06 01:40:52;;;;;;;16.75;13.70;;;;;;;;;;5020013;28;20125;-66
2021/08/06 01:43:22;;;;;;;16.65;13.90;;;;;;;;;;5018644;28;20053;-66
2021/08/06 01:45:55;;;;;;;15.80;14.10;;;;;;;;;;5020308;28;20045;-65
2021/08/06 01:48:23;;;;;;;16.40;13.68;;;;;;;;;;5019894;28;20050;-65
2021/08/06 01:50:50;;;;;;;16.75;14.25;;;;;;;;;;5022787;28;20437;-66
2021/08/06 01:53:18;;;;;;;18.20;14.88;;;;;;;;;;5020500;28;20059;-66
2021/08/06 01:55:48;;;;;;;17.17;13.48;;;;;;;;;;5018407;28;20049;-66
2021/08/06 01:58:15;;;;;;;17.63;14.18;;;;;;;;;;5015963;28;20084;-65
2021/08/06 02:00:41;;;;;;;16.02;13.85;;;;;;;;;;5021953;28;20099;-66
2021/08/06 02:03:08;;;;;;;16.35;14.65;;;;;;;;;;5016921;28;20099;-66
2021/08/06 02:05:35;;;;;;;15.43;13.93;;;;;;;;;;5015333;28;20073;-66
2021/08/06 02:08:02;;;;;;;17.60;14.65;;;;;;;;;;5021418;28;20087;-66
2021/08/06 02:10:29;;;;;;;18.13;15.20;;;;;;;;;;5020365;28;20155;-66
2021/08/06 02:12:56;;;;;;;17.45;14.77;;;;;;;;;;5022900;28;20396;-66
2021/08/06 02:15:22;;;;;;;16.02;14.32;;;;;;;;;;5020596;28;20140;-66
2021/08/06 02:17:50;;;;;;;17.33;14.77;;;;;;;;;;5021131;28;20744;-66
2021/08/06 02:20:17;;;;;;;15.27;13.68;;;;;;;;;;5023071;28;20266;-66
2021/08/06 02:22:44;;;;;;;17.27;14.93;;;;;;;;;;5020116;28;20042;-66
2021/08/06 02:25:11;;;;;;;17.77;14.50;;;;;;;;;;5023979;28;20037;-66
2021/08/06 02:27:37;;;;;;;18.45;14.68;;;;;;;;;;5017362;28;20046;-66
2021/08/06 02:30:04;;;;;;;17.08;14.43;;;;;;;;;;5012256;28;20120;-65
2021/08/06 02:32:31;;;;;;;16.70;14.13;;;;;;;;;;5020974;28;20331;-66
2021/08/06 02:34:58;;;;;;;16.88;15.10;;;;;;;;;;5018676;28;20050;-66
2021/08/06 02:37:24;;;;;;;18.10;15.85;;;;;;;;;;5018057;28;20041;-66
2021/08/06 02:39:51;;;;;;;17.23;15.40;;;;;;;;;;5019074;28;20542;-65
2021/08/06 02:42:17;;;;;;;18.00;15.52;;;;;;;;;;5021897;28;20094;-66
2021/08/06 02:44:43;;;;;;;20.80;16.98;;;;;;;;;;5021588;28;20034;-66
2021/08/06 02:47:10;;;;;;;17.52;15.57;;;;;;;;;;5018426;28;20543;-66
2021/08/06 02:49:36;;;;;;;17.38;15.20;;;;;;;;;;5017261;28;20046;-66
2021/08/06 02:52:05;;;;;;;20.40;15.25;;;;;;;;;;5018322;28;20052;-66
2021/08/06 02:54:32;;;;;;;21.23;15.65;;;;;;;;;;5017321;28;20050;-66
2021/08/06 02:56:58;;;;;;;17.42;14.93;;;;;;;;;;5018975;28;20046;-66
2021/08/06 02:59:24;;;;;;;17.30;15.10;;;;;;;;;;5020119;28;20053;-66
2021/08/06 03:01:51;;;;;;;20.65;15.43;;;;;;;;;;5023800;28;20126;-65
2021/08/06 03:04:17;;;;;;;18.80;15.60;;;;;;;;;;5020542;28;20051;-66
2021/08/06 03:06:43;;;;;;;18.65;15.70;;;;;;;;;;5016313;28;20150;-66
2021/08/06 03:09:09;;;;;;;22.20;16.13;;;;;;;;;;5020901;28;20041;-66
2021/08/06 03:11:35;;;;;;;17.58;15.63;;;;;;;;;;5024829;28;20046;-66
2021/08/06 03:14:02;;;;;;;17.77;15.52;;;;;;;;;;5023037;28;20050;-66
2021/08/06 03:16:28;;;;;;;19.42;15.38;;;;;;;;;;5021610;28;20445;-66
2021/08/06 03:18:54;;;;;;;16.92;14.68;;;;;;;;;;5018935;28;20462;-65
2021/08/06 03:21:20;;;;;;;17.90;15.80;;;;;;;;;;5024503;28;20050;-66
2021/08/06 03:23:48;;;;;;;16.58;14.88;;;;;;;;;;5020650;28;20050;-66
2021/08/06 03:26:14;;;;;;;21.38;16.15;;;;;;;;;;5013837;28;20073;-66
2021/08/06 03:28:40;;;;;;;18.13;16.20;;;;;;;;;;5020657;28;20485;-66
2021/08/06 03:31:06;;;;;;;20.95;16.85;;;;;;;;;;5021595;28;20149;-66
2021/08/06 03:33:33;;;;;;;18.13;16.25;;;;;;;;;;5015083;28;20084;-66
2021/08/06 03:35:59;;;;;;;19.75;16.15;;;;;;;;;;5018394;28;20110;-66
2021/08/06 03:38:26;;;;;;;21.33;16.92;;;;;;;;;;5021456;28;20038;-65
2021/08/06 03:40:54;;;;;;;21.38;17.23;;;;;;;;;;5018993;28;20049;-66
2021/08/06 03:43:20;;;;;;;19.85;16.00;;;;;;;;;;5022357;28;20047;-66
2021/08/06 03:45:46;;;;;;;20.13;16.83;;;;;;;;;;5024126;28;20147;-66
2021/08/06 03:48:12;;;;;;;18.13;16.17;;;;;;;;;;5021367;28;20049;-66
2021/08/06 03:50:39;;;;;;;18.88;16.42;;;;;;;;;;5020441;28;20608;-68
2021/08/06 03:53:05;;;;;;;17.88;16.00;;;;;;;;;;5022708;28;20048;-67
2021/08/06 03:55:35;;;;;;;18.63;16.20;;;;;;;;;;5022304;28;20149;-68
2021/08/06 03:58:02;;;;;;;20.02;17.10;;;;;;;;;;5020303;28;20088;-68
2021/08/06 04:00:32;;;;;;;19.80;16.65;;;;;;;;;;5024075;28;20049;-68
2021/08/06 04:02:58;;;;;;;17.58;15.70;;;;;;;;;;5019721;28;20064;-68
2021/08/06 04:05:30;;;;;;;20.10;16.35;;;;;;;;;;5017862;28;20249;-68
2021/08/06 04:07:56;;;;;;;22.45;17.20;;;;;;;;;;5022902;28;20049;-68
2021/08/06 04:10:23;;;;;;;16.80;15.00;;;;;;;;;;5019236;28;20049;-67
2021/08/06 04:12:50;;;;;;;19.85;15.93;;;;;;;;;;5018302;28;20191;-68
2021/08/06 04:15:17;;;;;;;20.95;15.43;;;;;;;;;;5018291;28;20501;-68
2021/08/06 04:17:43;;;;;;;19.95;16.23;;;;;;;;;;5020883;28;20167;-67
2021/08/06 04:20:10;;;;;;;23.35;15.60;;;;;;;;;;5021350;28;20095;-68
2021/08/06 04:22:36;;;;;;;18.33;15.60;;;;;;;;;;5018918;28;20141;-68
2021/08/06 04:25:03;;;;;;;17.38;15.43;;;;;;;;;;5019398;28;20046;-68
2021/08/06 04:27:29;;;;;;;19.25;15.57;;;;;;;;;;5018262;28;20046;-68
2021/08/06 04:29:55;;;;;;;20.45;15.10;;;;;;;;;;5024559;28;20041;-68
2021/08/06 04:32:21;;;;;;;17.30;15.43;;;;;;;;;;5019264;28;20037;-68
2021/08/06 04:34:48;;;;;;;16.92;14.57;;;;;;;;;;5028195;28;20083;-67
2021/08/06 04:37:14;;;;;;;19.25;15.07;;;;;;;;;;5022726;28;20061;-68
2021/08/06 04:39:41;;;;;;;17.05;14.77;;;;;;;;;;5019683;28;20041;-68
2021/08/06 04:42:07;;;;;;;17.38;14.98;;;;;;;;;;5019160;28;20053;-68
2021/08/06 04:44:36;;;;;;;18.73;13.95;;;;;;;;;;5013090;28;20057;-68
2021/08/06 04:47:03;;;;;;;16.77;14.32;;;;;;;;;;5020355;28;20045;-68
2021/08/06 04:49:33;;;;;;;16.98;13.75;;;;;;;;;;5013560;28;20053;-68
2021/08/06 04:51:59;;;;;;;16.90;14.98;;;;;;;;;;5010619;28;20553;-67
2021/08/06 04:54:30;;;;;;;15.85;13.32;;;;;;;;;;5013353;28;20596;-68
2021/08/06 04:56:56;;;;;;;16.60;13.93;;;;;;;;;;5018968;28;20052;-65
2021/08/06 04:59:22;;;;;;;15.05;13.15;;;;;;;;;;5020159;28;20141;-65
2021/08/06 05:01:48;;;;;;;14.75;13.15;;;;;;;;;;5023072;28;20120;-65
2021/08/06 05:04:14;;;;;;;15.48;13.05;;;;;;;;;;5028809;28;20057;-65
2021/08/06 05:06:41;;;;;;;15.40;12.13;;;;;;;;;;5026738;28;20111;-65
2021/08/06 05:09:07;;;;;;;14.63;12.88;;;;;;;;;;5022963;28;20412;-65
2021/08/06 05:11:35;;;;;;;17.25;13.40;;;;;;;;;;5025502;28;20908;-65
2021/08/06 05:14:01;;;;;;;16.42;13.43;;;;;;;;;;5026739;28;20465;-65
2021/08/06 05:16:27;;;;;;;15.88;13.18;;;;;;;;;;5017841;28;20073;-65
2021/08/06 05:18:53;;;;;;;17.83;13.73;;;;;;;;;;5017912;28;20108;-66
2021/08/06 05:21:20;;;;;;;20.38;13.55;;;;;;;;;;5021873;28;20053;-65
2021/08/06 05:23:46;;;;;;;17.10;12.23;;;;;;;;;;5025077;28;20057;-65
2021/08/06 05:26:13;;;;;;;16.38;12.95;;;;;;;;;;5024473;28;20506;-65
2021/08/06 05:28:39;;;;;;;16.23;12.57;;;;;;;;;;5017015;28;20042;-65
2021/08/06 05:31:06;;;;;;;16.75;12.50;;;;;;;;;;5018433;28;20045;-65
2021/08/06 05:33:32;;;;;;;17.52;14.07;;;;;;;;;;5015168;28;20081;-65
2021/08/06 05:35:58;;;;;;;17.73;12.70;;;;;;;;;;5022711;28;20060;-65
2021/08/06 05:38:25;;;;;;;17.80;14.65;;;;;;;;;;5017856;28;20089;-65
2021/08/06 05:40:51;;;;;;;18.05;15.32;;;;;;;;;;5025134;28;20347;-65
2021/08/06 05:43:18;;;;;;;20.35;15.43;;;;;;;;;;5022925;28;20054;-65
2021/08/06 05:45:44;;;;;;;21.38;16.33;;;;;;;;;;5020590;28;20046;-65
2021/08/06 05:48:13;;;;;;;22.30;17.25;;;;;;;;;;5016997;28;20068;-65
2021/08/06 05:50:40;;;;;;;18.83;16.33;;;;;;;;;;5024857;28;20156;-65
2021/08/06 05:53:06;;;;;;;16.92;15.15;;;;;;;;;;5017324;28;21530;-65
2021/08/06 05:55:32;;;;;;;17.10;14.48;;;;;;;;;;5023463;28;20136;-66
2021/08/06 05:57:59;;;;;;;18.45;15.75;;;;;;;;;;5026083;28;20050;-66
2021/08/06 06:00:26;;;;;;;21.63;14.88;;;;;;;;;;5024016;28;20060;-66
2021/08/06 06:02:52;;;;;;;18.40;14.95;;;;;;;;;;5022700;28;20054;-65
2021/08/06 06:05:20;;;;;;;16.70;13.75;;;;;;;;;;5029148;28;20073;-65
2021/08/06 06:07:47;;;;;;;21.35;14.73;;;;;;;;;;5026682;28;20064;-65
2021/08/06 06:10:17;;;;;;;17.13;13.15;;;;;;;;;;5017673;28;20050;-63
2021/08/06 06:12:43;;;;;;;19.95;14.38;;;;;;;;;;5018229;28;20061;-64
2021/08/06 06:15:10;;;;;;;15.40;12.45;;;;;;;;;;5024429;28;20109;-63
2021/08/06 06:17:37;;;;;;;18.13;12.80;;;;;;;;;;5019153;28;20141;-64
2021/08/06 06:20:04;;;;;;;15.48;13.32;;;;;;;;;;5014679;28;20046;-63
2021/08/06 06:22:30;;;;;;;16.92;12.88;;;;;;;;;;5025439;28;20098;-65
2021/08/06 06:24:57;;;;;;;17.00;12.15;;;;;;;;;;5016956;28;20053;-65
2021/08/06 06:27:23;;;;;;;15.93;12.88;;;;;;;;;;5019634;28;20068;-64
2021/08/06 06:29:49;;;;;;;13.75;11.95;;;;;;;;;;5016788;28;20068;-64
2021/08/06 06:32:16;;;;;;;17.25;12.63;;;;;;;;;;5020545;28;20175;-64
2021/08/06 06:34:42;;;;;;;13.20;11.82;;;;;;;;;;5021405;28;20056;-64
2021/08/06 06:37:08;;;;;;;16.52;12.70;;;;;;;;;;5023626;28;20041;-64
2021/08/06 06:39:35;;;;;;;19.73;12.77;;;;;;;;;;5025511;28;20101;-64
2021/08/06 06:42:01;;;;;;;18.48;13.55;;;;;;;;;;5020546;28;20107;-64
2021/08/06 06:44:27;;;;;;;20.85;13.77;;;;;;;;;;5021984;28;20063;-64
2021/08/06 06:46:54;;;;;;;16.58;14.68;;;;;;;;;;5014061;28;20050;-64
2021/08/06 06:49:20;;;;;;;16.23;11.90;;;;;;;;;;5018066;28;20495;-64
2021/08/06 06:51:46;;;;;;;15.77;11.50;;;;;;;;;;5020250;28;20060;-64
2021/08/06 06:54:12;;;;;;;16.15;12.70;;;;;;;;;;5022805;28;20493;-64
2021/08/06 06:56:39;;;;;;;14.88;12.30;;;;;;;;;;5019199;28;20191;-64
2021/08/06 06:59:05;;;;;;;17.85;13.65;;;;;;;;;;5020926;28;20092;-64
2021/08/06 07:01:31;;;;;;;18.15;13.63;;;;;;;;;;5018494;28;20861;-65
2021/08/06 07:03:57;;;;;;;16.95;11.70;;;;;;;;;;5013770;28;20401;-65
2021/08/06 07:06:24;;;;;;;13.90;11.50;;;;;;;;;;5016031;28;20053;-65
2021/08/06 07:08:50;;;;;;;18.33;12.32;;;;;;;;;;5023418;28;20406;-64
2021/08/06 07:11:17;;;;;;;12.95;11.02;;;;;;;;;;5017919;28;20049;-65
2021/08/06 07:13:44;;;;;;;16.20;12.68;;;;;;;;;;5021259;28;20433;-65
2021/08/06 07:16:11;;;;;;;14.57;11.48;;;;;;;;;;5021569;28;20050;-65
2021/08/06 07:18:37;;;;;;;15.98;12.35;;;;;;;;;;5021590;28;20104;-65
2021/08/06 07:21:05;;;;;;;14.85;11.00;;;;;;;;;;5022792;28;20049;-65
2021/08/06 07:23:32;;;;;;;15.00;10.27;;;;;;;;;;5026180;28;20119;-65
2021/08/06 07:25:58;;;;;;;12.73;10.90;;;;;;;;;;5025362;28;20057;-65
2021/08/06 07:28:25;;;;;;;12.43;10.18;;;;;;;;;;5016846;28;20551;-64
2021/08/06 07:30:51;;;;;;;13.75;10.52;;;;;;;;;;5022818;28;20042;-65
2021/08/06 07:33:19;;;;;;;12.20;9.70;;;;;;;;;;5020801;28;20068;-64
2021/08/06 07:35:45;;;;;;;13.35;10.38;;;;;;;;;;5023185;28;20045;-65
2021/08/06 07:38:11;;;;;;;13.10;10.70;;;;;;;;;;5020803;28;20521;-64
2021/08/06 07:40:38;;;;;;;14.23;11.88;;;;;;;;;;5031452;28;20083;-65
2021/08/06 07:43:04;;;;;;;15.50;10.70;;;;;;;;;;5026526;28;20037;-65
2021/08/06 07:45:30;;;;;;;13.27;10.40;;;;;;;;;;5027023;28;20087;-65
2021/08/06 07:47:57;;;;;;;13.35;10.45;;;;;;;;;;5024202;28;20034;-64
2021/08/06 07:50:23;;;;;;;13.38;10.50;;;;;;;;;;5028055;28;20083;-64
2021/08/06 07:52:49;;;;;;;13.45;11.40;;;;;;;;;;5026668;28;20085;-65
2021/08/06 07:55:16;;;;;;;15.15;9.45;;;;;;;;;;5019531;28;20496;-65
2021/08/06 07:57:43;;;;;;;12.82;10.68;;;;;;;;;;5026667;28;20166;-64
2021/08/06 08:00:09;;;;;;;13.95;10.23;;;;;;;;;;5027151;28;20117;-65
2021/08/06 08:02:37;;;;;;;12.07;10.18;;;;;;;;;;5024467;28;20048;-64
2021/08/06 08:05:04;;;;;;;12.88;10.10;;;;;;;;;;5026480;28;20409;-65
2021/08/06 08:07:32;;;;;;;11.65;10.13;;;;;;;;;;5023200;28;20038;-65
2021/08/06 08:09:58;;;;;;;11.13;9.93;;;;;;;;;;5016228;28;20038;-66
2021/08/06 08:12:25;;;;;;;11.27;9.30;;;;;;;;;;5026339;28;20502;-66
2021/08/06 08:14:51;;;;;;;12.00;10.52;;;;;;;;;;5027044;28;20041;-67
2021/08/06 08:17:17;;;;;;;11.20;9.07;;;;;;;;;;5021255;28;20105;-67
2021/08/06 08:19:45;;;;;;;10.30;8.88;;;;;;;;;;5021176;28;20044;-67
2021/08/06 08:22:12;;;;;;;12.70;9.52;;;;;;;;;;5026452;28;20053;-67
2021/08/06 08:24:38;;;;;;;10.32;8.93;;;;;;;;;;5026567;28;20512;-67
2021/08/06 08:27:05;;;;;;;10.10;9.02;;;;;;;;;;5021102;28;20046;-64
2021/08/06 08:29:32;;;;;;;9.52;7.68;;;;;;;;;;5019327;28;20046;-64
2021/08/06 08:31:59;;;;;;;9.00;8.02;;;;;;;;;;5019306;28;20116;-64
2021/08/06 08:34:25;;;;;;;9.75;7.80;;;;;;;;;;5021365;28;20049;-64
2021/08/06 08:36:51;;;;;;;10.23;8.05;;;;;;;;;;5026485;28;20063;-65
2021/08/06 08:39:19;;;;;;;10.48;7.75;;;;;;;;;;5023483;28;20154;-64
2021/08/06 08:41:47;;;;;;;8.30;6.65;;;;;;;;;;5021937;28;20572;-65
2021/08/06 08:44:13;;;;;;;10.32;6.68;;;;;;;;;;5016727;28;20169;-65
2021/08/06 08:46:40;;;;;;;9.27;6.20;;;;;;;;;;5019551;28;20069;-65
2021/08/06 08:49:06;;;;;;;7.80;6.03;;;;;;;;;;5023719;28;20528;-64
2021/08/06 08:51:32;;;;;;;7.57;5.93;;;;;;;;;;5022590;28;20128;-66
2021/08/06 08:54:01;;;;;;;7.03;6.13;;;;;;;;;;5020876;28;20046;-66
2021/08/06 08:56:30;;;;;;;8.10;5.95;;;;;;;;;;5019829;28;20049;-66
2021/08/06 08:58:56;;;;;;;6.90;5.25;;;;;;;;;;5018360;28;20038;-66
2021/08/06 09:01:23;;;;;;;7.95;5.00;;;;;;;;;;5021159;28;20049;-66
2021/08/06 09:03:49;;;;;;;6.15;5.10;;;;;;;;;;5020654;28;20133;-67
2021/08/06 09:06:16;;;;;;;8.65;4.95;;;;;;;;;;5023189;28;20050;-66
2021/08/06 09:08:43;;;;;;;7.93;4.70;;;;;;;;;;5027178;28;20041;-67
2021/08/06 09:11:26;;;;;;;7.13;4.43;;;;;;;;;;5025577;28;20065;-74
2021/08/06 09:13:53;;;;;;;7.20;4.88;;;;;;;;;;5020607;28;20053;-66
2021/08/06 09:16:19;;;;;;;8.82;4.78;;;;;;;;;;5020560;28;20125;-66
2021/08/06 09:18:45;;;;;;;6.60;4.00;;;;;;;;;;5024511;28;20133;-66
2021/08/06 09:21:18;;;;;;;16.98;7.90;;;;;;;;;;5019572;28;20057;-66
2021/08/06 09:23:44;;;;;;;13.02;7.50;;;;;;;;;;5026290;28;20132;-66
2021/08/06 09:26:28;;;;;;;25.73;10.02;;;;;;;;;;5017387;28;20045;-66
2021/08/06 09:29:02;;;;;;;14.02;9.30;;;;;;;;;;5018882;28;20049;-66
2021/08/06 09:31:28;;;;;;;14.63;10.10;;;;;;;;;;5019020;28;20072;-66
2021/08/06 09:34:09;;;;;;;12.70;11.13;;;;;;;;;;5016745;28;20049;-66
2021/08/06 09:36:35;;;;;;;12.90;11.60;;;;;;;;;;5023314;28;20065;-66
2021/08/06 09:39:13;;;;;;;17.33;11.57;;;;;;;;;;5018430;28;20119;-65
2021/08/06 09:41:40;;;;;;;14.45;12.25;;;;;;;;;;5017028;28;20071;-66
2021/08/06 09:44:16;;;;;;;15.75;12.38;;;;;;;;;;5023488;28;20061;-66
2021/08/06 09:46:42;;;;;;;17.25;13.65;;;;;;;;;;5021017;28;20064;-66
2021/08/06 09:49:08;;;;;;;18.30;14.27;;;;;;;;;;5018394;28;20053;-66
2021/08/06 09:51:42;;;;;;;14.68;12.20;;;;;;;;;;5020719;28;20117;-66
2021/08/06 09:54:25;;;;;;;18.50;13.82;;;;;;;;;;5021239;28;20046;-66
2021/08/06 09:57:09;;;;;;;12.80;10.98;;;;;;;;;;5021122;28;20488;-66
2021/08/06 09:59:36;;;;;;;14.43;11.23;;;;;;;;;;5019596;28;20055;-66
2021/08/06 10:02:10;;;;;;;15.98;12.30;;;;;;;;;;5020429;28;20053;-65
2021/08/06 10:04:37;;;;;;;19.38;14.65;;;;;;;;;;5021026;28;20492;-66
2021/08/06 10:07:03;;;;;;;14.27;11.18;;;;;;;;;;5016987;28;20038;-66
2021/08/06 10:09:30;;;;;;;12.75;10.57;;;;;;;;;;5014418;28;20057;-66
2021/08/06 10:11:56;;;;;;;12.75;10.88;;;;;;;;;;5020391;28;20106;-67
2021/08/06 10:14:22;;;;;;;13.02;11.02;;;;;;;;;;5024841;28;20049;-66
2021/08/06 10:16:48;;;;;;;14.13;10.55;;;;;;;;;;5022078;28;20053;-66
2021/08/06 10:19:15;;;;;;;14.02;11.40;;;;;;;;;;5022535;28;20485;-66
2021/08/06 10:21:41;;;;;;;12.50;9.32;;;;;;;;;;5016995;28;20143;-66
2021/08/06 10:24:08;;;;;;;11.02;8.85;;;;;;;;;;5016782;28;20042;-67
2021/08/06 10:26:35;;;;;;;11.90;8.15;;;;;;;;;;5021388;28;20115;-67
2021/08/06 10:29:01;;;;;;;9.77;7.03;;;;;;;;;;5016509;28;20449;-67
2021/08/06 10:31:27;;;;;;;11.23;7.75;;;;;;;;;;5017536;28;20046;-67
2021/08/06 10:34:07;;;;;;;13.27;8.18;;;;;;;;;;5022192;28;20049;-71
2021/08/06 10:36:42;;;;;;;11.18;7.57;;;;;;;;;;5020769;28;20132;-70
2021/08/06 10:39:27;;;;;;;7.90;5.20;;;;;;;;;;5020236;28;20155;-70
2021/08/06 10:41:53;;;;;;;8.75;5.55;;;;;;;;;;5017020;28;20053;-71
2021/08/06 10:44:20;;;;;;;9.85;5.82;;;;;;;;;;5020233;28;20117;-71
2021/08/06 10:46:51;;;;;;;10.25;5.13;;;;;;;;;;5019909;28;20141;-71
2021/08/06 10:49:17;;;;;;;11.55;5.40;;;;;;;;;;5021717;28;20057;-71
2021/08/06 10:51:44;;;;;;;9.68;5.15;;;;;;;;;;5021629;28;20163;-71
2021/08/06 10:54:10;;;;;;;9.43;5.35;;;;;;;;;;5019421;28;20128;-71
2021/08/06 10:56:38;;;;;;;7.43;4.20;;;;;;;;;;5021328;28;20133;-71
2021/08/06 10:59:11;;;;;;;8.90;4.50;;;;;;;;;;5021196;28;20052;-71
2021/08/06 11:01:39;;;;;;;7.60;4.97;;;;;;;;;;5019530;28;20050;-71
2021/08/06 11:04:06;;;;;;;8.15;4.90;;;;;;;;;;5023598;28;20463;-71
2021/08/06 11:06:34;;;;;;;9.07;4.68;;;;;;;;;;5017650;28;20073;-71
2021/08/06 11:09:00;;;;;;;8.55;5.20;;;;;;;;;;5020164;28;20100;-71
2021/08/06 11:11:45;;;;;;;9.98;4.50;;;;;;;;;;5018139;28;20099;-71
2021/08/06 11:14:14;;;;;;;9.77;5.05;;;;;;;;;;5016353;28;20117;-71
2021/08/06 11:16:59;;;;;;;8.80;5.10;;;;;;;;;;5020770;28;20055;-71
2021/08/06 11:19:29;;;;;;;9.13;4.93;;;;;;;;;;5022431;28;20379;-71
2021/08/06 11:21:55;;;;;;;12.40;4.22;;;;;;;;;;5017043;28;20061;-72
2021/08/06 11:24:22;;;;;;;9.55;4.18;;;;;;;;;;5018226;28;20541;-72
2021/08/06 11:26:49;;;;;;;7.95;3.83;;;;;;;;;;5018171;28;20361;-72
2021/08/06 11:29:15;;;;;;;9.38;4.53;;;;;;;;;;5021412;28;20050;-72
2021/08/06 11:31:41;;;;;;;9.05;4.40;;;;;;;;;;5021585;28;20049;-72
2021/08/06 11:34:08;;;;;;;7.25;3.92;;;;;;;;;;5016031;28;20038;-72
2021/08/06 11:36:35;;;;;;;7.07;4.50;;;;;;;;;;5021682;28;20087;-72
2021/08/06 11:39:12;;;;;;;7.18;4.53;;;;;;;;;;5021520;28;20045;-72
2021/08/06 11:41:46;;;;;;;7.18;3.97;;;;;;;;;;5022767;28;20054;-72
2021/08/06 11:44:12;;;;;;;6.43;3.97;;;;;;;;;;5022334;28;20074;-72
2021/08/06 11:46:45;;;;;;;6.60;3.53;;;;;;;;;;5025897;28;20050;-72
2021/08/06 11:49:11;;;;;;;6.07;3.47;;;;;;;;;;5020647;28;20045;-72
2021/08/06 11:51:45;;;;;;;5.13;3.20;;;;;;;;;;5021386;28;20045;-72
2021/08/06 11:54:12;;;;;;;6.82;3.80;;;;;;;;;;5021537;28;20046;-72
2021/08/06 11:56:38;;;;;;;6.55;4.05;;;;;;;;;;5022022;28;20080;-72
2021/08/06 11:59:10;;;;;;;5.57;3.72;;;;;;;;;;5018771;28;20042;-72
2021/08/06 12:01:36;;;;;;;7.70;4.10;;;;;;;;;;5013880;28;20069;-72
2021/08/06 12:04:03;;;;;;;5.78;3.13;;;;;;;;;;5018180;28;20350;-72
2021/08/06 12:06:31;;;;;;;5.32;3.20;;;;;;;;;;5024509;28;20099;-72
2021/08/06 12:08:58;;;;;;;6.57;2.70;;;;;;;;;;5023474;28;20041;-72
2021/08/06 12:11:27;;;;;;;7.22;2.70;;;;;;;;;;5020896;28;20457;-72
2021/08/06 12:13:55;;;;;;;7.13;2.90;;;;;;;;;;5024978;28;20096;-72
2021/08/06 12:16:23;;;;;;;4.93;2.30;;;;;;;;;;5023905;28;20101;-71
2021/08/06 12:18:50;;;;;;;6.93;2.45;;;;;;;;;;5017241;28;20054;-71
2021/08/06 12:21:19;;;;;;;7.50;2.00;;;;;;;;;;5018625;28;20052;-72
2021/08/06 12:23:47;;;;;;;6.88;1.73;;;;;;;;;;5024530;28;20037;-72
2021/08/06 12:26:19;;;;;;;6.65;1.52;;;;;;;;;;5022775;28;20062;-73
2021/08/06 12:28:47;;;;;;;4.78;1.48;;;;;;;;;;5021209;28;20038;-72
2021/08/06 12:31:15;;;;;;;4.32;1.90;;;;;;;;;;5021564;28;20109;-72
2021/08/06 12:33:42;;;;;;;11.13;3.03;;;;;;;;;;5022445;28;20096;-72
2021/08/06 12:36:11;;;;;;;7.13;2.35;;;;;;;;;;5026778;28;20117;-72
2021/08/06 12:38:37;;;;;;;5.28;2.05;;;;;;;;;;5025039;28;20083;-72
2021/08/06 12:41:04;;;;;;;7.35;2.53;;;;;;;;;;5021361;28;20049;-72
2021/08/06 12:43:30;;;;;;;8.25;2.75;;;;;;;;;;5019577;28;20056;-71
2021/08/06 12:46:10;;;;;;;5.32;2.50;;;;;;;;;;5016715;28;20053;-72
2021/08/06 12:48:57;;;;;;;6.47;2.20;;;;;;;;;;5019240;28;20499;-72
2021/08/06 12:51:23;;;;;;;7.13;1.98;;;;;;;;;;5025240;28;20533;-72
2021/08/06 12:53:50;;;;;;;5.85;2.10;;;;;;;;;;5019326;28;20064;-71
2021/08/06 12:56:16;;;;;;;3.97;1.98;;;;;;;;;;5021816;28;20049;-72
2021/08/06 12:58:43;;;;;;;4.43;2.20;;;;;;;;;;5026952;28;20525;-71
2021/08/06 13:01:09;;;;;;;4.38;1.85;;;;;;;;;;5022969;28;20466;-71
2021/08/06 13:03:43;;;;;;;5.30;2.40;;;;;;;;;;5023756;28;20084;-71
2021/08/06 13:06:09;;;;;;;6.35;2.20;;;;;;;;;;5039085;28;20140;-71
2021/08/06 13:08:36;;;;;;;5.82;2.55;;;;;;;;;;5023540;28;20061;-71
2021/08/06 13:11:02;;;;;;;6.53;2.17;;;;;;;;;;5027894;28;20042;-71
2021/08/06 13:13:34;;;;;;;5.13;2.33;;;;;;;;;;5025076;28;20095;-71
2021/08/06 13:16:01;;;;;;;4.63;1.80;;;;;;;;;;5023943;28;20049;-71
2021/08/06 13:18:27;;;;;;;3.70;1.92;;;;;;;;;;5020994;28;20033;-71
2021/08/06 13:20:54;;;;;;;4.65;1.70;;;;;;;;;;5021975;28;20124;-71
2021/08/06 13:23:20;;;;;;;3.53;1.50;;;;;;;;;;5024267;28;20038;-71
2021/08/06 13:25:46;;;;;;;5.18;1.55;;;;;;;;;;5020870;28;20068;-71
2021/08/06 13:28:13;;;;;;;5.22;1.75;;;;;;;;;;5022757;28;20117;-71
2021/08/06 13:30:40;;;;;;;3.30;1.63;;;;;;;;;;5023458;28;20148;-71
2021/08/06 13:33:06;;;;;;;2.88;1.50;;;;;;;;;;5023232;28;20049;-71
2021/08/06 13:35:32;;;;;;;4.20;1.90;;;;;;;;;;5019955;28;20049;-71
2021/08/06 13:37:59;;;;;;;5.05;1.52;;;;;;;;;;5020771;28;20045;-71
2021/08/06 13:40:26;;;;;;;3.45;1.85;;;;;;;;;;5027079;28;20052;-71
2021/08/06 13:42:52;;;;;;;2.10;1.40;;;;;;;;;;5018851;28;20050;-71
2021/08/06 13:45:19;;;;;;;3.63;1.27;;;;;;;;;;5024254;28;20042;-71
2021/08/06 13:47:45;;;;;;;4.45;1.55;;;;;;;;;;5023150;28;20041;-71
2021/08/06 13:50:12;;;;;;;6.95;1.85;;;;;;;;;;5017772;28;20053;-71
2021/08/06 13:52:38;;;;;;;4.45;2.28;;;;;;;;;;5024833;28;20354;-71
2021/08/06 13:55:05;;;;;;;4.78;2.42;;;;;;;;;;5025837;28;20045;-71
2021/08/06 13:57:32;;;;;;;6.85;2.63;;;;;;;;;;5026271;28;20543;-71
2021/08/06 13:59:59;;;;;;;4.88;2.58;;;;;;;;;;5024481;28;20108;-71
2021/08/06 14:02:25;;;;;;;5.75;2.67;;;;;;;;;;5023390;28;20157;-71
2021/08/06 14:04:51;;;;;;;7.70;3.00;;;;;;;;;;5020877;28;20090;-71
2021/08/06 14:07:17;;;;;;;4.90;2.85;;;;;;;;;;5021509;28;20073;-71
2021/08/06 14:09:44;;;;;;;4.47;2.50;;;;;;;;;;5021120;28;20066;-71
2021/08/06 14:12:11;;;;;;;4.32;1.30;;;;;;;;;;5023731;28;20090;-71
2021/08/06 14:14:37;;;;;;;3.38;1.17;;;;;;;;;;5022922;28;20045;-71
2021/08/06 14:17:04;;;;;;;5.15;1.48;;;;;;;;;;5023175;28;20094;-70
2021/08/06 14:19:30;;;;;;;4.80;1.30;;;;;;;;;;5021045;28;20511;-71
2021/08/06 14:21:56;;;;;;;4.20;1.35;;;;;;;;;;5023191;28;20070;-71
2021/08/06 14:24:23;;;;;;;5.65;1.63;;;;;;;;;;5023107;28;20093;-71
2021/08/06 14:26:49;;;;;;;6.60;2.30;;;;;;;;;;5018680;28;20416;-71